createdAt,value
2019-01-13T00:00:53.233Z,20.27
2019-01-13T00:01:53.221Z,20.29
2019-01-13T00:02:53.210Z,20.34
2019-01-13T00:03:53.201Z,20.33
2019-01-13T00:04:53.190Z,20.33
2019-01-13T00:05:53.186Z,20.32
2019-01-13T00:06:53.167Z,20.22
2019-01-13T00:07:53.156Z,20.30
2019-01-13T00:08:53.150Z,20.33
2019-01-13T00:09:53.134Z,20.30
2019-01-13T00:10:53.124Z,20.30
2019-01-13T00:11:53.115Z,20.27
2019-01-13T00:12:53.104Z,20.30
2019-01-13T00:13:53.091Z,20.27
2019-01-13T00:14:53.080Z,20.30
2019-01-13T00:15:53.071Z,20.21
2019-01-13T00:16:53.057Z,20.30
2019-01-13T00:17:53.049Z,20.30
2019-01-13T00:18:53.043Z,20.18
2019-01-13T00:19:53.027Z,20.18
2019-01-13T00:20:53.016Z,20.18
2019-01-13T00:21:53.005Z,20.30
2019-01-13T00:22:52.998Z,20.30
2019-01-13T00:23:52.984Z,20.19
2019-01-13T00:24:52.974Z,20.18
2019-01-13T00:25:52.961Z,20.27
2019-01-13T00:26:52.957Z,20.27
2019-01-13T00:27:52.941Z,20.18
2019-01-13T00:28:52.930Z,20.19
2019-01-13T00:29:52.919Z,20.21
2019-01-13T00:30:52.912Z,20.18
2019-01-13T00:31:52.901Z,20.27
2019-01-13T00:32:52.888Z,20.17
2019-01-13T00:33:52.880Z,20.17
2019-01-13T00:34:52.864Z,20.21
2019-01-13T00:35:52.856Z,20.29
2019-01-13T00:36:52.842Z,20.21
2019-01-13T00:37:52.833Z,20.14
2019-01-13T00:38:52.821Z,20.18
2019-01-13T00:39:52.810Z,20.19
2019-01-13T00:40:52.809Z,20.18
2019-01-13T00:41:52.794Z,20.08
2019-01-13T00:42:52.779Z,19.79
2019-01-13T00:43:52.762Z,19.47
2019-01-13T00:44:52.761Z,19.34
2019-01-13T00:45:52.745Z,18.89
2019-01-13T00:46:52.745Z,18.79
2019-01-13T00:47:52.724Z,18.41
2019-01-13T00:48:52.734Z,18.26
2019-01-13T00:49:52.704Z,17.94
2019-01-13T00:50:52.692Z,17.86
2019-01-13T00:51:52.688Z,17.82
2019-01-13T00:52:52.666Z,17.86
2019-01-13T00:53:52.656Z,17.82
2019-01-13T00:54:52.650Z,17.90
2019-01-13T00:55:52.637Z,18.00
2019-01-13T00:56:52.622Z,18.06
2019-01-13T00:57:52.612Z,18.31
2019-01-13T00:58:52.597Z,18.34
2019-01-13T00:59:52.592Z,18.41
2019-01-13T01:00:52.577Z,18.49
2019-01-13T01:01:53.008Z,18.63
2019-01-13T01:02:52.554Z,18.74
2019-01-13T01:03:52.567Z,18.70
2019-01-13T01:04:52.531Z,18.85
2019-01-13T01:05:52.527Z,18.86
2019-01-13T01:06:52.509Z,18.92
2019-01-13T01:07:52.500Z,19.00
2019-01-13T01:08:52.490Z,19.04
2019-01-13T01:09:52.476Z,19.19
2019-01-13T01:10:52.462Z,19.26
2019-01-13T01:11:52.447Z,19.35
2019-01-13T01:12:52.443Z,19.34
2019-01-13T01:13:52.437Z,19.42
2019-01-13T01:14:52.416Z,19.42
2019-01-13T01:15:52.410Z,19.53
2019-01-13T01:16:52.447Z,19.57
2019-01-13T01:17:52.380Z,19.55
2019-01-13T01:18:52.375Z,19.62
2019-01-13T01:19:52.362Z,19.67
2019-01-13T01:20:52.350Z,19.62
2019-01-13T01:21:52.339Z,19.74
2019-01-13T01:22:52.330Z,19.79
2019-01-13T01:23:52.314Z,19.77
2019-01-13T01:24:52.303Z,19.85
2019-01-13T01:25:52.293Z,19.85
2019-01-13T01:26:52.282Z,19.90
2019-01-13T01:27:52.277Z,19.96
2019-01-13T01:28:52.261Z,19.97
2019-01-13T01:29:52.251Z,19.96
2019-01-13T01:30:52.243Z,19.96
2019-01-13T01:31:52.226Z,20.02
2019-01-13T01:32:52.219Z,20.03
2019-01-13T01:33:52.200Z,20.04
2019-01-13T01:34:52.194Z,20.10
2019-01-13T01:35:52.184Z,20.14
2019-01-13T01:36:54.210Z,20.10
2019-01-13T01:37:52.159Z,20.10
2019-01-13T01:38:52.151Z,20.08
2019-01-13T01:39:52.143Z,20.15
2019-01-13T01:40:52.128Z,20.15
2019-01-13T01:41:52.117Z,20.08
2019-01-13T01:42:52.105Z,20.14
2019-01-13T01:43:52.098Z,20.17
2019-01-13T01:44:52.084Z,20.21
2019-01-13T01:45:52.074Z,20.21
2019-01-13T01:46:52.063Z,20.22
2019-01-13T01:47:52.050Z,20.18
2019-01-13T01:48:52.045Z,20.26
2019-01-13T01:49:52.037Z,20.17
2019-01-13T01:50:52.020Z,20.19
2019-01-13T01:51:52.005Z,20.15
2019-01-13T01:52:51.996Z,20.17
2019-01-13T01:53:51.988Z,20.21
2019-01-13T01:54:51.976Z,20.24
2019-01-13T01:55:51.965Z,20.27
2019-01-13T01:56:51.955Z,20.21
2019-01-13T01:57:51.940Z,20.21
2019-01-13T01:58:51.933Z,20.22
2019-01-13T01:59:51.922Z,20.33
2019-01-13T02:00:51.910Z,20.36
2019-01-13T02:01:51.901Z,20.32
2019-01-13T02:02:51.889Z,20.33
2019-01-13T02:03:51.883Z,20.37
2019-01-13T02:04:51.883Z,20.39
2019-01-13T02:05:51.857Z,20.29
2019-01-13T02:06:51.867Z,20.33
2019-01-13T02:07:51.832Z,20.36
2019-01-13T02:08:51.831Z,20.33
2019-01-13T02:09:51.820Z,20.30
2019-01-13T02:10:51.805Z,20.39
2019-01-13T02:11:51.790Z,20.32
2019-01-13T02:12:51.784Z,20.42
2019-01-13T02:13:51.769Z,20.37
2019-01-13T02:14:51.755Z,20.34
2019-01-13T02:15:51.748Z,20.34
2019-01-13T02:16:51.738Z,20.44
2019-01-13T02:17:51.726Z,20.42
2019-01-13T02:18:51.715Z,20.39
2019-01-13T02:19:51.710Z,20.39
2019-01-13T02:20:51.695Z,20.42
2019-01-13T02:21:51.682Z,20.36
2019-01-13T02:22:51.672Z,20.44
2019-01-13T02:23:51.662Z,20.37
2019-01-13T02:24:51.653Z,20.39
2019-01-13T02:25:51.641Z,20.40
2019-01-13T02:26:51.633Z,20.46
2019-01-13T02:27:51.618Z,20.39
2019-01-13T02:28:51.608Z,20.44
2019-01-13T02:29:51.598Z,20.46
2019-01-13T02:30:51.588Z,20.48
2019-01-13T02:31:51.579Z,20.48
2019-01-13T02:32:51.566Z,20.44
2019-01-13T02:33:51.551Z,20.46
2019-01-13T02:34:51.546Z,20.44
2019-01-13T02:35:51.542Z,20.52
2019-01-13T02:36:51.521Z,20.40
2019-01-13T02:37:51.513Z,20.49
2019-01-13T02:38:51.506Z,20.44
2019-01-13T02:39:51.489Z,20.44
2019-01-13T02:40:51.481Z,20.40
2019-01-13T02:41:51.473Z,20.44
2019-01-13T02:42:51.464Z,20.40
2019-01-13T02:43:51.465Z,20.44
2019-01-13T02:44:51.436Z,20.44
2019-01-13T02:45:51.438Z,20.39
2019-01-13T02:46:51.416Z,20.33
2019-01-13T02:47:51.407Z,20.39
2019-01-13T02:48:51.395Z,20.40
2019-01-13T02:49:51.383Z,20.33
2019-01-13T02:50:51.375Z,20.32
2019-01-13T02:51:51.362Z,20.30
2019-01-13T02:52:51.352Z,20.33
2019-01-13T02:53:51.344Z,20.36
2019-01-13T02:54:51.330Z,20.34
2019-01-13T02:55:51.327Z,20.30
2019-01-13T02:56:51.307Z,20.34
2019-01-13T02:57:51.300Z,20.30
2019-01-13T02:58:51.287Z,20.36
2019-01-13T02:59:51.278Z,20.33
2019-01-13T03:00:57.045Z,20.26
2019-01-13T03:01:51.258Z,20.26
2019-01-13T03:02:51.246Z,20.32
2019-01-13T03:03:51.235Z,20.22
2019-01-13T03:04:51.226Z,20.39
2019-01-13T03:05:51.211Z,20.33
2019-01-13T03:06:51.201Z,20.22
2019-01-13T03:07:51.188Z,20.24
2019-01-13T03:08:51.177Z,20.30
2019-01-13T03:09:51.173Z,20.17
2019-01-13T03:10:51.159Z,20.27
2019-01-13T03:11:51.141Z,20.32
2019-01-13T03:12:51.253Z,20.17
2019-01-13T03:13:51.126Z,20.30
2019-01-13T03:14:51.115Z,20.15
2019-01-13T03:15:51.105Z,20.30
2019-01-13T03:16:51.095Z,20.30
2019-01-13T03:17:51.089Z,20.21
2019-01-13T03:18:51.076Z,20.32
2019-01-13T03:19:51.065Z,20.18
2019-01-13T03:20:51.051Z,20.18
2019-01-13T03:21:51.041Z,20.18
2019-01-13T03:22:51.029Z,20.19
2019-01-13T03:23:51.018Z,20.17
2019-01-13T03:24:51.007Z,20.18
2019-01-13T03:25:50.997Z,20.24
2019-01-13T03:26:50.984Z,20.26
2019-01-13T03:27:50.976Z,20.26
2019-01-13T03:28:50.971Z,20.15
2019-01-13T03:29:50.954Z,20.17
2019-01-13T03:30:50.943Z,20.19
2019-01-13T03:31:50.934Z,20.18
2019-01-13T03:32:50.926Z,20.19
2019-01-13T03:33:50.908Z,20.21
2019-01-13T03:34:50.901Z,20.19
2019-01-13T03:35:50.895Z,20.21
2019-01-13T03:36:50.876Z,20.17
2019-01-13T03:37:50.869Z,20.21
2019-01-13T03:38:50.861Z,20.21
2019-01-13T03:39:50.847Z,20.24
2019-01-13T03:40:50.832Z,20.19
2019-01-13T03:41:50.826Z,20.22
2019-01-13T03:42:50.813Z,20.21
2019-01-13T03:43:50.803Z,20.21
2019-01-13T03:44:50.791Z,20.21
2019-01-13T03:45:50.778Z,20.21
2019-01-13T03:46:50.772Z,20.22
2019-01-13T03:47:50.758Z,20.24
2019-01-13T03:48:50.746Z,20.21
2019-01-13T03:49:50.738Z,20.17
2019-01-13T03:50:50.729Z,20.22
2019-01-13T03:51:50.715Z,20.21
2019-01-13T03:52:53.214Z,20.22
2019-01-13T03:53:50.693Z,20.22
2019-01-13T03:54:50.683Z,20.14
2019-01-13T03:55:50.671Z,20.17
2019-01-13T03:56:50.666Z,20.26
2019-01-13T03:57:50.650Z,20.24
2019-01-13T03:58:50.661Z,20.18
2019-01-13T03:59:50.628Z,20.17
2019-01-13T04:00:50.617Z,20.15
2019-01-13T04:01:50.607Z,20.21
2019-01-13T04:02:50.595Z,20.15
2019-01-13T04:03:50.585Z,20.18
2019-01-13T04:04:50.571Z,20.22
2019-01-13T04:05:50.567Z,20.19
2019-01-13T04:06:50.553Z,20.15
2019-01-13T04:07:50.542Z,20.30
2019-01-13T04:08:50.529Z,20.19
2019-01-13T04:09:50.579Z,20.21
2019-01-13T04:10:50.509Z,20.30
2019-01-13T04:11:50.496Z,20.30
2019-01-13T04:12:50.484Z,20.32
2019-01-13T04:13:50.477Z,20.33
2019-01-13T04:14:50.467Z,20.33
2019-01-13T04:15:50.454Z,20.33
2019-01-13T04:16:50.448Z,20.33
2019-01-13T04:17:50.434Z,20.29
2019-01-13T04:18:50.427Z,20.34
2019-01-13T04:19:50.412Z,20.30
2019-01-13T04:20:50.394Z,20.32
2019-01-13T04:21:50.388Z,20.32
2019-01-13T04:22:50.381Z,20.30
2019-01-13T04:23:50.370Z,20.29
2019-01-13T04:24:50.358Z,20.36
2019-01-13T04:25:50.351Z,20.32
2019-01-13T04:26:50.338Z,20.30
2019-01-13T04:27:50.325Z,20.30
2019-01-13T04:28:50.318Z,20.32
2019-01-13T04:29:50.304Z,20.36
2019-01-13T04:30:50.294Z,20.32
2019-01-13T04:31:50.283Z,20.36
2019-01-13T04:32:50.274Z,20.36
2019-01-13T04:33:50.262Z,20.33
2019-01-13T04:34:50.252Z,20.32
2019-01-13T04:35:50.239Z,20.33
2019-01-13T04:36:50.228Z,20.34
2019-01-13T04:37:50.220Z,20.37
2019-01-13T04:38:50.212Z,20.36
2019-01-13T04:39:50.196Z,20.32
2019-01-13T04:40:50.189Z,20.36
2019-01-13T04:41:50.174Z,20.36
2019-01-13T04:42:50.163Z,20.37
2019-01-13T04:43:50.152Z,20.32
2019-01-13T04:44:50.143Z,20.33
2019-01-13T04:45:50.144Z,20.33
2019-01-13T04:46:50.122Z,20.33
2019-01-13T04:47:50.119Z,20.32
2019-01-13T04:48:50.101Z,20.33
2019-01-13T04:49:50.092Z,20.34
2019-01-13T04:50:50.087Z,20.30
2019-01-13T04:51:50.069Z,20.30
2019-01-13T04:52:50.057Z,20.32
2019-01-13T04:53:50.050Z,20.30
2019-01-13T04:54:50.038Z,20.37
2019-01-13T04:55:50.034Z,20.30
2019-01-13T04:56:50.012Z,20.33
2019-01-13T04:57:50.003Z,20.34
2019-01-13T04:58:49.993Z,20.37
2019-01-13T04:59:49.988Z,20.34
2019-01-13T05:00:49.970Z,20.32
2019-01-13T05:01:49.959Z,20.36
2019-01-13T05:02:49.950Z,20.33
2019-01-13T05:03:49.939Z,20.32
2019-01-13T05:04:49.931Z,20.34
2019-01-13T05:05:49.924Z,20.30
2019-01-13T05:06:49.907Z,20.32
2019-01-13T05:07:49.899Z,20.33
2019-01-13T05:08:49.884Z,20.30
2019-01-13T05:09:49.874Z,20.32
2019-01-13T05:10:49.862Z,20.36
2019-01-13T05:11:49.854Z,20.33
2019-01-13T05:12:49.841Z,20.33
2019-01-13T05:13:49.832Z,20.30
2019-01-13T05:14:49.836Z,20.34
2019-01-13T05:15:49.813Z,20.33
2019-01-13T05:16:49.801Z,20.34
2019-01-13T05:17:49.795Z,20.32
2019-01-13T05:18:49.779Z,20.32
2019-01-13T05:19:49.765Z,20.32
2019-01-13T05:20:49.756Z,20.32
2019-01-13T05:21:49.746Z,20.33
2019-01-13T05:22:49.734Z,20.33
2019-01-13T05:23:49.721Z,20.33
2019-01-13T05:24:49.711Z,20.32
2019-01-13T05:25:49.699Z,20.32
2019-01-13T05:26:49.697Z,20.30
2019-01-13T05:27:49.678Z,20.39
2019-01-13T05:28:49.670Z,20.32
2019-01-13T05:29:49.659Z,20.32
2019-01-13T05:30:49.649Z,20.34
2019-01-13T05:31:49.635Z,20.36
2019-01-13T05:32:49.625Z,20.36
2019-01-13T05:33:49.610Z,20.34
2019-01-13T05:34:49.605Z,20.39
2019-01-13T05:35:49.598Z,20.34
2019-01-13T05:36:49.582Z,20.33
2019-01-13T05:37:49.572Z,20.33
2019-01-13T05:38:49.563Z,20.36
2019-01-13T05:39:49.555Z,20.30
2019-01-13T05:40:49.550Z,20.34
2019-01-13T05:41:49.533Z,20.37
2019-01-13T05:42:49.517Z,20.39
2019-01-13T05:43:49.505Z,20.34
2019-01-13T05:44:49.499Z,20.37
2019-01-13T05:45:49.488Z,20.36
2019-01-13T05:46:49.485Z,20.37
2019-01-13T05:47:49.465Z,20.36
2019-01-13T05:48:49.454Z,20.42
2019-01-13T05:49:49.447Z,20.37
2019-01-13T05:50:49.435Z,20.33
2019-01-13T05:51:49.424Z,20.36
2019-01-13T05:52:49.414Z,20.30
2019-01-13T05:53:49.408Z,20.36
2019-01-13T05:54:49.390Z,20.36
2019-01-13T05:55:49.378Z,20.40
2019-01-13T05:56:49.372Z,20.40
2019-01-13T05:57:49.357Z,20.40
2019-01-13T05:58:49.350Z,20.40
2019-01-13T05:59:49.341Z,20.29
2019-01-13T06:00:49.333Z,20.37
2019-01-13T06:01:49.522Z,20.37
2019-01-13T06:02:49.305Z,20.32
2019-01-13T06:03:49.293Z,20.40
2019-01-13T06:04:49.281Z,20.30
2019-01-13T06:05:49.274Z,20.30
2019-01-13T06:06:49.261Z,20.33
2019-01-13T06:07:49.252Z,20.33
2019-01-13T06:08:49.247Z,20.37
2019-01-13T06:09:49.228Z,20.34
2019-01-13T06:10:49.219Z,20.33
2019-01-13T06:11:49.208Z,20.30
2019-01-13T06:12:49.203Z,20.32
2019-01-13T06:13:49.187Z,20.37
2019-01-13T06:14:49.177Z,20.36
2019-01-13T06:15:49.169Z,20.40
2019-01-13T06:16:49.152Z,20.32
2019-01-13T06:17:49.144Z,20.39
2019-01-13T06:18:49.133Z,20.29
2019-01-13T06:19:49.127Z,20.39
2019-01-13T06:20:49.109Z,20.40
2019-01-13T06:21:49.106Z,20.37
2019-01-13T06:22:49.089Z,20.40
2019-01-13T06:23:49.078Z,20.40
2019-01-13T06:24:49.067Z,20.29
2019-01-13T06:25:49.056Z,20.30
2019-01-13T06:26:49.047Z,20.39
2019-01-13T06:27:49.037Z,20.32
2019-01-13T06:28:49.031Z,20.24
2019-01-13T06:29:49.014Z,20.30
2019-01-13T06:30:49.008Z,20.39
2019-01-13T06:31:56.107Z,20.42
2019-01-13T06:32:48.982Z,20.30
2019-01-13T06:33:48.969Z,20.33
2019-01-13T06:34:48.962Z,20.33
2019-01-13T06:35:48.951Z,20.39
2019-01-13T06:36:48.940Z,20.36
2019-01-13T06:37:48.936Z,20.30
2019-01-13T06:38:48.920Z,20.30
2019-01-13T06:39:48.910Z,20.37
2019-01-13T06:40:48.897Z,20.36
2019-01-13T06:41:48.885Z,20.32
2019-01-13T06:42:48.875Z,20.36
2019-01-13T06:43:48.864Z,20.36
2019-01-13T06:44:48.857Z,20.32
2019-01-13T06:45:48.843Z,20.39
2019-01-13T06:46:48.836Z,20.33
2019-01-13T06:47:48.818Z,20.29
2019-01-13T06:48:48.810Z,20.30
2019-01-13T06:49:48.800Z,20.34
2019-01-13T06:50:48.790Z,20.39
2019-01-13T06:51:48.778Z,20.33
2019-01-13T06:52:48.767Z,20.34
2019-01-13T06:53:48.758Z,20.34
2019-01-13T06:54:48.748Z,20.32
2019-01-13T06:55:48.738Z,20.30
2019-01-13T06:56:48.717Z,20.34
2019-01-13T06:57:48.718Z,20.34
2019-01-13T06:58:48.703Z,20.37
2019-01-13T06:59:48.692Z,20.39
2019-01-13T07:00:48.683Z,20.36
2019-01-13T07:01:48.674Z,20.32
2019-01-13T07:02:48.660Z,20.34
2019-01-13T07:03:48.653Z,20.37
2019-01-13T07:04:48.629Z,20.42
2019-01-13T07:05:48.625Z,20.33
2019-01-13T07:06:48.619Z,20.39
2019-01-13T07:07:48.606Z,20.42
2019-01-13T07:08:48.595Z,20.33
2019-01-13T07:09:48.588Z,20.39
2019-01-13T07:10:48.574Z,20.37
2019-01-13T07:11:48.564Z,20.42
2019-01-13T07:12:48.564Z,20.37
2019-01-13T07:13:48.542Z,20.34
2019-01-13T07:14:48.532Z,20.42
2019-01-13T07:15:48.540Z,20.40
2019-01-13T07:16:48.516Z,20.27
2019-01-13T07:17:48.508Z,20.37
2019-01-13T07:18:48.489Z,20.44
2019-01-13T07:19:48.477Z,20.36
2019-01-13T07:20:48.467Z,20.39
2019-01-13T07:21:48.457Z,20.36
2019-01-13T07:22:48.445Z,20.36
2019-01-13T07:23:48.436Z,20.29
2019-01-13T07:24:48.423Z,20.42
2019-01-13T07:25:48.415Z,20.30
2019-01-13T07:26:48.403Z,20.36
2019-01-13T07:27:48.392Z,20.46
2019-01-13T07:28:48.382Z,20.29
2019-01-13T07:29:48.376Z,20.36
2019-01-13T07:30:48.369Z,20.32
2019-01-13T07:31:48.348Z,20.42
2019-01-13T07:32:48.337Z,20.30
2019-01-13T07:33:48.328Z,20.36
2019-01-13T07:34:48.322Z,20.33
2019-01-13T07:35:48.307Z,20.39
2019-01-13T07:36:48.296Z,20.37
2019-01-13T07:37:48.287Z,20.40
2019-01-13T07:38:48.275Z,20.32
2019-01-13T07:39:48.268Z,20.48
2019-01-13T07:40:48.253Z,20.27
2019-01-13T07:41:48.245Z,20.39
2019-01-13T07:42:48.228Z,20.34
2019-01-13T07:43:48.224Z,20.39
2019-01-13T07:44:48.209Z,20.40
2019-01-13T07:45:48.200Z,20.36
2019-01-13T07:46:48.189Z,20.27
2019-01-13T07:47:48.177Z,20.34
2019-01-13T07:48:48.168Z,20.36
2019-01-13T07:49:48.159Z,20.36
2019-01-13T07:50:48.150Z,20.36
2019-01-13T07:51:48.134Z,20.37
2019-01-13T07:52:48.130Z,20.40
2019-01-13T07:53:48.113Z,20.40
2019-01-13T07:54:48.103Z,20.44
2019-01-13T07:55:48.092Z,20.40
2019-01-13T07:56:48.082Z,20.42
2019-01-13T07:57:48.071Z,20.44
2019-01-13T07:58:48.061Z,20.39
2019-01-13T07:59:48.050Z,20.36
2019-01-13T08:00:48.039Z,20.40
2019-01-13T08:01:48.027Z,20.37
2019-01-13T08:02:48.024Z,20.44
2019-01-13T08:03:48.010Z,20.37
2019-01-13T08:04:47.997Z,20.44
2019-01-13T08:05:47.988Z,20.39
2019-01-13T08:06:47.977Z,20.39
2019-01-13T08:07:47.962Z,20.42
2019-01-13T08:08:47.953Z,20.44
2019-01-13T08:09:47.938Z,20.46
2019-01-13T08:10:47.927Z,20.39
2019-01-13T08:11:47.925Z,20.46
2019-01-13T08:12:47.912Z,20.44
2019-01-13T08:13:47.899Z,20.42
2019-01-13T08:14:47.892Z,20.40
2019-01-13T08:15:47.877Z,20.49
2019-01-13T08:16:47.868Z,20.42
2019-01-13T08:17:47.858Z,20.48
2019-01-13T08:18:47.846Z,20.46
2019-01-13T08:19:47.836Z,20.42
2019-01-13T08:20:47.829Z,20.42
2019-01-13T08:21:47.813Z,20.46
2019-01-13T08:22:47.805Z,20.42
2019-01-13T08:23:47.792Z,20.44
2019-01-13T08:24:47.781Z,20.42
2019-01-13T08:25:47.772Z,20.48
2019-01-13T08:26:47.766Z,20.42
2019-01-13T08:27:47.752Z,20.40
2019-01-13T08:28:47.738Z,20.49
2019-01-13T08:29:47.728Z,20.48
2019-01-13T08:30:47.717Z,20.42
2019-01-13T08:31:47.705Z,20.46
2019-01-13T08:32:47.696Z,20.37
2019-01-13T08:33:47.686Z,20.39
2019-01-13T08:34:47.679Z,20.40
2019-01-13T08:35:47.674Z,20.42
2019-01-13T08:36:47.654Z,20.40
2019-01-13T08:37:47.645Z,20.46
2019-01-13T08:38:47.629Z,20.44
2019-01-13T08:39:47.621Z,20.46
2019-01-13T08:40:47.610Z,20.39
2019-01-13T08:41:47.600Z,20.42
2019-01-13T08:42:47.590Z,20.39
2019-01-13T08:43:47.578Z,20.40
2019-01-13T08:44:47.569Z,20.39
2019-01-13T08:45:50.443Z,20.42
2019-01-13T08:46:47.544Z,20.48
2019-01-13T08:47:47.534Z,20.42
2019-01-13T08:48:47.530Z,20.42
2019-01-13T08:49:47.516Z,20.39
2019-01-13T08:50:47.504Z,20.46
2019-01-13T08:51:47.492Z,20.36
2019-01-13T08:52:47.484Z,20.40
2019-01-13T08:53:47.472Z,20.48
2019-01-13T08:54:47.487Z,20.44
2019-01-13T08:55:47.452Z,20.30
2019-01-13T08:56:47.442Z,20.42
2019-01-13T08:57:47.429Z,20.48
2019-01-13T08:58:47.419Z,20.46
2019-01-13T08:59:47.407Z,20.46
2019-01-13T09:00:47.395Z,20.42
2019-01-13T09:01:47.388Z,20.42
2019-01-13T09:02:47.376Z,20.44
2019-01-13T09:03:47.363Z,20.42
2019-01-13T09:04:47.359Z,20.40
2019-01-13T09:05:47.340Z,20.40
2019-01-13T09:06:47.334Z,20.42
2019-01-13T09:07:47.323Z,20.42
2019-01-13T09:08:47.304Z,20.39
2019-01-13T09:09:47.301Z,20.46
2019-01-13T09:10:47.290Z,20.48
2019-01-13T09:11:47.283Z,20.48
2019-01-13T09:12:47.268Z,20.42
2019-01-13T09:13:47.259Z,20.40
2019-01-13T09:14:47.248Z,20.44
2019-01-13T09:15:47.239Z,20.48
2019-01-13T09:16:47.222Z,20.46
2019-01-13T09:17:47.217Z,20.42
2019-01-13T09:18:47.204Z,20.53
2019-01-13T09:19:47.197Z,20.46
2019-01-13T09:20:47.257Z,20.49
2019-01-13T09:21:47.173Z,20.53
2019-01-13T09:22:47.170Z,20.46
2019-01-13T09:23:47.148Z,20.48
2019-01-13T09:24:47.141Z,20.42
2019-01-13T09:25:47.129Z,20.56
2019-01-13T09:26:50.972Z,20.46
2019-01-13T09:27:47.110Z,20.49
2019-01-13T09:28:47.101Z,20.49
2019-01-13T09:29:47.088Z,20.53
2019-01-13T09:30:47.078Z,20.52
2019-01-13T09:31:47.065Z,20.53
2019-01-13T09:32:47.055Z,20.55
2019-01-13T09:33:47.042Z,20.46
2019-01-13T09:34:47.037Z,20.53
2019-01-13T09:35:47.022Z,20.49
2019-01-13T09:36:47.013Z,20.48
2019-01-13T09:37:47.002Z,20.49
2019-01-13T09:38:46.990Z,20.44
2019-01-13T09:39:46.983Z,20.53
2019-01-13T09:40:46.973Z,20.48
2019-01-13T09:41:46.961Z,20.48
2019-01-13T09:42:46.950Z,20.52
2019-01-13T09:43:46.943Z,20.56
2019-01-13T09:44:46.927Z,20.49
2019-01-13T09:45:46.918Z,20.46
2019-01-13T09:46:46.906Z,20.48
2019-01-13T09:47:46.896Z,20.53
2019-01-13T09:48:46.891Z,20.49
2019-01-13T09:49:49.940Z,20.50
2019-01-13T09:50:46.864Z,20.52
2019-01-13T09:51:46.852Z,20.53
2019-01-13T09:52:46.845Z,20.44
2019-01-13T09:53:46.833Z,20.50
2019-01-13T09:54:46.821Z,20.50
2019-01-13T09:55:46.808Z,20.48
2019-01-13T09:56:46.801Z,20.50
2019-01-13T09:57:46.846Z,20.49
2019-01-13T09:58:46.783Z,20.53
2019-01-13T09:59:46.768Z,20.50
2019-01-13T10:00:46.756Z,20.46
2019-01-13T10:01:46.752Z,20.44
2019-01-13T10:02:47.035Z,20.50
2019-01-13T10:03:46.726Z,20.56
2019-01-13T10:04:46.724Z,20.55
2019-01-13T10:05:46.702Z,20.49
2019-01-13T10:06:46.694Z,20.49
2019-01-13T10:07:46.683Z,20.56
2019-01-13T10:08:46.673Z,20.48
2019-01-13T10:09:46.664Z,20.46
2019-01-13T10:10:46.650Z,20.46
2019-01-13T10:11:46.644Z,20.37
2019-01-13T10:12:46.631Z,20.48
2019-01-13T10:13:46.621Z,20.37
2019-01-13T10:14:46.608Z,20.40
2019-01-13T10:15:46.600Z,20.33
2019-01-13T10:16:46.587Z,20.36
2019-01-13T10:17:46.590Z,20.36
2019-01-13T10:18:46.560Z,20.39
2019-01-13T10:19:46.559Z,20.40
2019-01-13T10:20:46.546Z,20.42
2019-01-13T10:21:46.533Z,20.39
2019-01-13T10:22:46.523Z,20.46
2019-01-13T10:23:46.511Z,20.44
2019-01-13T10:24:46.502Z,20.44
2019-01-13T10:25:46.493Z,20.44
2019-01-13T10:26:46.481Z,20.49
2019-01-13T10:27:46.471Z,20.44
2019-01-13T10:28:46.458Z,20.46
2019-01-13T10:29:46.452Z,20.46
2019-01-13T10:30:46.438Z,20.40
2019-01-13T10:31:46.425Z,20.46
2019-01-13T10:32:47.805Z,20.49
2019-01-13T10:33:46.405Z,20.44
2019-01-13T10:34:46.401Z,20.40
2019-01-13T10:35:46.388Z,20.49
2019-01-13T10:36:46.375Z,20.53
2019-01-13T10:37:46.360Z,20.52
2019-01-13T10:38:46.355Z,20.44
2019-01-13T10:39:46.352Z,20.40
2019-01-13T10:40:46.335Z,20.50
2019-01-13T10:41:46.321Z,20.37
2019-01-13T10:42:46.313Z,20.52
2019-01-13T10:43:46.299Z,20.55
2019-01-13T10:44:46.291Z,20.46
2019-01-13T10:45:46.279Z,20.53
2019-01-13T10:46:46.269Z,20.53
2019-01-13T10:47:46.256Z,20.48
2019-01-13T10:48:46.251Z,20.55
2019-01-13T10:49:46.235Z,20.49
2019-01-13T10:50:46.231Z,20.46
2019-01-13T10:51:46.213Z,20.49
2019-01-13T10:52:46.205Z,20.46
2019-01-13T10:53:46.195Z,20.52
2019-01-13T10:54:46.184Z,20.53
2019-01-13T10:55:46.173Z,20.56
2019-01-13T10:56:46.169Z,20.56
2019-01-13T10:57:46.191Z,20.49
2019-01-13T10:58:46.141Z,20.55
2019-01-13T10:59:46.128Z,20.50
2019-01-13T11:00:46.120Z,20.48
2019-01-13T11:01:46.108Z,20.55
2019-01-13T11:02:46.108Z,20.53
2019-01-13T11:03:46.108Z,20.53
2019-01-13T11:04:46.075Z,20.52
2019-01-13T11:05:46.060Z,20.52
2019-01-13T11:06:46.057Z,20.52
2019-01-13T11:07:46.043Z,20.46
2019-01-13T11:08:46.037Z,20.52
2019-01-13T11:09:46.023Z,20.56
2019-01-13T11:10:46.011Z,20.50
2019-01-13T11:11:46.004Z,20.46
2019-01-13T11:12:45.996Z,20.53
2019-01-13T11:13:45.982Z,20.52
2019-01-13T11:14:45.970Z,20.52
2019-01-13T11:15:45.963Z,20.49
2019-01-13T11:16:45.958Z,20.56
2019-01-13T11:17:45.941Z,20.52
2019-01-13T11:18:45.929Z,20.52
2019-01-13T11:19:46.048Z,20.46
2019-01-13T11:20:45.912Z,20.46
2019-01-13T11:21:45.899Z,20.49
2019-01-13T11:22:45.884Z,20.53
2019-01-13T11:23:45.870Z,20.53
2019-01-13T11:24:45.862Z,20.52
2019-01-13T11:25:45.859Z,20.49
2019-01-13T11:26:45.841Z,20.49
2019-01-13T11:27:45.830Z,20.53
2019-01-13T11:28:45.819Z,20.56
2019-01-13T11:29:45.809Z,20.58
2019-01-13T11:30:45.797Z,20.53
2019-01-13T11:31:45.790Z,20.49
2019-01-13T11:32:45.779Z,20.40
2019-01-13T11:33:45.764Z,20.49
2019-01-13T11:34:45.765Z,20.46
2019-01-13T11:35:45.745Z,20.53
2019-01-13T11:36:45.734Z,20.48
2019-01-13T11:37:45.725Z,20.56
2019-01-13T11:38:45.715Z,20.56
2019-01-13T11:39:45.702Z,20.52
2019-01-13T11:40:45.692Z,20.50
2019-01-13T11:41:45.683Z,20.53
2019-01-13T11:42:45.671Z,20.53
2019-01-13T11:43:45.664Z,20.53
2019-01-13T11:44:45.650Z,20.53
2019-01-13T11:45:45.639Z,20.52
2019-01-13T11:46:45.653Z,20.49
2019-01-13T11:47:45.619Z,20.50
2019-01-13T11:48:45.610Z,20.50
2019-01-13T11:49:45.603Z,20.50
2019-01-13T11:50:45.589Z,20.44
2019-01-13T11:51:45.575Z,20.55
2019-01-13T11:52:45.566Z,20.44
2019-01-13T11:53:45.555Z,20.52
2019-01-13T11:54:45.543Z,20.52
2019-01-13T11:55:45.533Z,20.44
2019-01-13T11:56:45.532Z,20.50
2019-01-13T11:57:45.516Z,20.49
2019-01-13T11:58:45.507Z,20.48
2019-01-13T11:59:45.491Z,20.55
2019-01-13T12:00:45.481Z,20.52
2019-01-13T12:01:45.472Z,20.53
2019-01-13T12:02:45.464Z,20.56
2019-01-13T12:03:45.451Z,20.52
2019-01-13T12:04:45.446Z,20.56
2019-01-13T12:05:45.432Z,20.46
2019-01-13T12:06:45.417Z,20.49
2019-01-13T12:07:45.407Z,20.55
2019-01-13T12:08:45.396Z,20.50
2019-01-13T12:09:45.381Z,20.53
2019-01-13T12:10:45.373Z,20.53
2019-01-13T12:11:45.364Z,20.55
2019-01-13T12:12:45.354Z,20.50
2019-01-13T12:13:45.341Z,20.53
2019-01-13T12:14:45.333Z,20.55
2019-01-13T12:15:45.321Z,20.50
2019-01-13T12:16:45.317Z,20.50
2019-01-13T12:17:45.338Z,20.50
2019-01-13T12:18:45.297Z,20.53
2019-01-13T12:19:45.278Z,20.52
2019-01-13T12:20:45.270Z,20.53
2019-01-13T12:21:45.260Z,20.53
2019-01-13T12:22:45.248Z,20.50
2019-01-13T12:23:45.235Z,20.53
2019-01-13T12:24:45.226Z,20.52
2019-01-13T12:25:52.369Z,20.50
2019-01-13T12:26:45.212Z,20.52
2019-01-13T12:27:45.193Z,20.50
2019-01-13T12:28:45.180Z,20.55
2019-01-13T12:29:45.171Z,20.50
2019-01-13T12:30:45.168Z,20.55
2019-01-13T12:31:45.152Z,20.55
2019-01-13T12:32:45.142Z,20.56
2019-01-13T12:33:45.130Z,20.42
2019-01-13T12:34:45.122Z,20.53
2019-01-13T12:35:45.111Z,20.56
2019-01-13T12:36:45.104Z,20.50
2019-01-13T12:37:45.094Z,20.49
2019-01-13T12:38:45.076Z,20.52
2019-01-13T12:39:46.202Z,20.53
2019-01-13T12:40:45.057Z,20.53
2019-01-13T12:41:45.046Z,20.48
2019-01-13T12:42:45.040Z,20.53
2019-01-13T12:43:45.023Z,20.50
2019-01-13T12:44:45.015Z,20.50
2019-01-13T12:45:45.006Z,20.55
2019-01-13T12:46:44.989Z,20.56
2019-01-13T12:47:44.982Z,20.52
2019-01-13T12:48:44.974Z,20.50
2019-01-13T12:49:44.962Z,20.53
2019-01-13T12:50:44.953Z,20.55
2019-01-13T12:51:44.940Z,20.52
2019-01-13T12:52:44.929Z,20.49